sensor_id;sensor_type;location;lat;lon;timestamp;pressure;altitude;pressure_sealevel;temperature;humidity
55759;BME280;41678;52.126;20.664;2023-05-20T00:02:49;101419.03;;;12.53;83.14
55759;BME280;41678;52.126;20.664;2023-05-20T00:08:09;101410.19;;;12.58;82.96
55759;BME280;41678;52.126;20.664;2023-05-20T00:13:29;101412.84;;;12.55;83.26
55759;BME280;41678;52.126;20.664;2023-05-20T00:18:48;101409.31;;;12.56;82.98
55759;BME280;41678;52.126;20.664;2023-05-20T00:24:08;101411.09;;;12.54;82.82
55759;BME280;41678;52.126;20.664;2023-05-20T00:29:27;101402.28;;;12.60;82.79
55759;BME280;41678;52.126;20.664;2023-05-20T00:34:57;101409.31;;;12.56;82.76
55759;BME280;41678;52.126;20.664;2023-05-20T00:40:17;101412.00;;;12.55;83.05
55759;BME280;41678;52.126;20.664;2023-05-20T00:45:37;101406.69;;;12.56;82.90
55759;BME280;41678;52.126;20.664;2023-05-20T00:50:58;101389.06;;;12.55;82.75
55759;BME280;41678;52.126;20.664;2023-05-20T00:56:18;101396.13;;;12.56;82.98
55759;BME280;41678;52.126;20.664;2023-05-20T01:01:40;101404.06;;;12.58;83.09
55759;BME280;41678;52.126;20.664;2023-05-20T01:07:03;101407.56;;;12.58;82.92
55759;BME280;41678;52.126;20.664;2023-05-20T01:12:29;101404.91;;;12.58;83.07
55759;BME280;41678;52.126;20.664;2023-05-20T01:17:56;101406.69;;;12.56;83.51
55759;BME280;41678;52.126;20.664;2023-05-20T01:23:16;101404.94;;;12.55;83.08
55759;BME280;41678;52.126;20.664;2023-05-20T01:28:36;101412.00;;;12.55;83.27
55759;BME280;41678;52.126;20.664;2023-05-20T01:33:57;101404.94;;;12.54;83.14
55759;BME280;41678;52.126;20.664;2023-05-20T01:39:18;101404.09;;;12.52;82.78
55759;BME280;41678;52.126;20.664;2023-05-20T01:44:38;101404.94;;;12.51;82.95
55759;BME280;41678;52.126;20.664;2023-05-20T01:49:58;101394.38;;;12.49;83.22
55759;BME280;41678;52.126;20.664;2023-05-20T01:55:17;101388.22;;;12.49;82.63
55759;BME280;41678;52.126;20.664;2023-05-20T02:00:37;101379.41;;;12.46;82.94
55759;BME280;41678;52.126;20.664;2023-05-20T02:05:57;101383.81;;;12.44;82.94
55759;BME280;41678;52.126;20.664;2023-05-20T02:11:16;101379.41;;;12.42;82.87
55759;BME280;41678;52.126;20.664;2023-05-20T02:16:36;101385.59;;;12.44;82.61
55759;BME280;41678;52.126;20.664;2023-05-20T02:21:56;101386.47;;;12.41;82.51
55759;BME280;41678;52.126;20.664;2023-05-20T02:27:16;101390.88;;;12.38;82.92
55759;BME280;41678;52.126;20.664;2023-05-20T02:32:35;101384.72;;;12.37;82.81
55759;BME280;41678;52.126;20.664;2023-05-20T02:37:56;101384.72;;;12.36;82.66
55759;BME280;41678;52.126;20.664;2023-05-20T02:43:16;101384.72;;;12.34;82.61
55759;BME280;41678;52.126;20.664;2023-05-20T02:48:35;101386.47;;;12.35;82.54
55759;BME280;41678;52.126;20.664;2023-05-20T02:53:55;101389.13;;;12.32;82.50
55759;BME280;41678;52.126;20.664;2023-05-20T02:59:15;101386.50;;;12.33;82.92
55759;BME280;41678;52.126;20.664;2023-05-20T03:04:35;101391.78;;;12.38;82.82
55759;BME280;41678;52.126;20.664;2023-05-20T03:09:57;101393.53;;;12.33;82.79
55759;BME280;41678;52.126;20.664;2023-05-20T03:15:20;101390.00;;;12.36;82.76
55759;BME280;41678;52.126;20.664;2023-05-20T03:20:40;101404.09;;;12.33;82.24
55759;BME280;41678;52.126;20.664;2023-05-20T03:26:00;101399.69;;;12.37;82.58
55759;BME280;41678;52.126;20.664;2023-05-20T03:31:21;101397.06;;;12.33;82.51
55759;BME280;41678;52.126;20.664;2023-05-20T03:36:42;101391.75;;;12.32;82.92
55759;BME280;41678;52.126;20.664;2023-05-20T03:42:03;101389.13;;;12.30;82.96
55759;BME280;41678;52.126;20.664;2023-05-20T03:47:22;101387.38;;;12.29;82.79
55759;BME280;41678;52.126;20.664;2023-05-20T03:52:43;101400.56;;;12.32;82.88
55759;BME280;41678;52.126;20.664;2023-05-20T03:58:03;101395.28;;;12.34;82.56
55759;BME280;41678;52.126;20.664;2023-05-20T04:03:24;101398.81;;;12.35;82.84
55759;BME280;41678;52.126;20.664;2023-05-20T04:08:44;101416.44;;;12.37;82.85
55759;BME280;41678;52.126;20.664;2023-05-20T04:14:04;101397.91;;;12.42;82.98
55759;BME280;41678;52.126;20.664;2023-05-20T04:19:23;101402.31;;;12.41;82.77
55759;BME280;41678;52.126;20.664;2023-05-20T04:24:47;101411.13;;;12.48;82.99
55759;BME280;41678;52.126;20.664;2023-05-20T04:30:07;101414.66;;;12.47;83.07
55759;BME280;41678;52.126;20.664;2023-05-20T04:35:31;101420.81;;;12.49;83.17
55759;BME280;41678;52.126;20.664;2023-05-20T04:40:59;101408.44;;;12.57;83.81
55759;BME280;41678;52.126;20.664;2023-05-20T04:46:20;101404.94;;;12.57;83.71
55759;BME280;41678;52.126;20.664;2023-05-20T04:51:40;101407.56;;;12.68;83.87
55759;BME280;41678;52.126;20.664;2023-05-20T04:57:00;101409.34;;;12.67;84.09
55759;BME280;41678;52.126;20.664;2023-05-20T05:02:19;101401.41;;;12.63;83.87
55759;BME280;41678;52.126;20.664;2023-05-20T05:07:39;101408.44;;;12.64;84.05
55759;BME280;41678;52.126;20.664;2023-05-20T05:12:59;101406.66;;;12.72;84.01
55759;BME280;41678;52.126;20.664;2023-05-20T05:18:19;101418.13;;;12.77;83.81
55759;BME280;41678;52.126;20.664;2023-05-20T05:23:39;101411.06;;;12.76;84.35
55759;BME280;41678;52.126;20.664;2023-05-20T05:29:01;101411.94;;;12.78;84.17
55759;BME280;41678;52.126;20.664;2023-05-20T05:34:21;101411.91;;;12.87;84.36
55759;BME280;41678;52.126;20.664;2023-05-20T05:39:40;101412.75;;;12.96;84.25
55759;BME280;41678;52.126;20.664;2023-05-20T05:45:01;101415.44;;;12.86;84.51
55759;BME280;41678;52.126;20.664;2023-05-20T05:50:23;101413.66;;;12.95;84.10
55759;BME280;41678;52.126;20.664;2023-05-20T05:55:45;101407.47;;;12.94;84.65
55759;BME280;41678;52.126;20.664;2023-05-20T06:01:05;101417.09;;;13.12;84.65
55759;BME280;41678;52.126;20.664;2023-05-20T06:06:25;101417.13;;;13.09;84.59
55759;BME280;41678;52.126;20.664;2023-05-20T06:11:45;101421.50;;;13.16;84.50
55759;BME280;41678;52.126;20.664;2023-05-20T06:17:05;101417.06;;;13.23;84.56
55759;BME280;41678;52.126;20.664;2023-05-20T06:22:25;101416.06;;;13.54;85.22
55759;BME280;41678;52.126;20.664;2023-05-20T06:27:44;101414.31;;;13.48;85.40
55759;BME280;41678;52.126;20.664;2023-05-20T06:33:23;101420.41;;;13.61;85.38
55759;BME280;41678;52.126;20.664;2023-05-20T06:38:48;101425.66;;;13.70;85.20
55759;BME280;41678;52.126;20.664;2023-05-20T06:44:09;101421.19;;;13.82;85.52
55759;BME280;41678;52.126;20.664;2023-05-20T06:49:45;101416.72;;;13.87;85.60
55759;BME280;41678;52.126;20.664;2023-05-20T06:55:04;101408.75;;;13.92;85.51
55759;BME280;41678;52.126;20.664;2023-05-20T07:00:26;101412.09;;;14.17;86.30
55759;BME280;41678;52.126;20.664;2023-05-20T07:05:47;101404.94;;;14.28;86.10
55759;BME280;41678;52.126;20.664;2023-05-20T07:11:07;101403.03;;;14.41;85.94
55759;BME280;41678;52.126;20.664;2023-05-20T07:16:26;101393.16;;;14.57;86.07
55759;BME280;41678;52.126;20.664;2023-05-20T07:21:48;101396.50;;;14.78;86.41
55759;BME280;41678;52.126;20.664;2023-05-20T07:27:25;101398.13;;;14.92;86.27
55759;BME280;41678;52.126;20.664;2023-05-20T07:32:45;101397.88;;;15.09;86.22
55759;BME280;41678;52.126;20.664;2023-05-20T07:38:06;101395.03;;;15.26;86.32
55759;BME280;41678;52.126;20.664;2023-05-20T07:43:27;101392.91;;;15.51;86.37
55759;BME280;41678;52.126;20.664;2023-05-20T07:48:46;101389.06;;;15.74;86.24
55759;BME280;41678;52.126;20.664;2023-05-20T07:54:08;101375.50;;;15.93;85.88
55759;BME280;41678;52.126;20.664;2023-05-20T07:59:27;101380.53;;;16.10;85.85
55759;BME280;41678;52.126;20.664;2023-05-20T08:04:47;101388.13;;;16.30;85.70
55759;BME280;41678;52.126;20.664;2023-05-20T08:10:08;101380.84;;;16.41;85.98
55759;BME280;41678;52.126;20.664;2023-05-20T08:15:29;101384.19;;;16.53;85.79
55759;BME280;41678;52.126;20.664;2023-05-20T08:20:49;101377.75;;;16.65;85.69
55759;BME280;41678;52.126;20.664;2023-05-20T08:26:10;101376.66;;;16.77;85.39
55759;BME280;41678;52.126;20.664;2023-05-20T08:31:33;101372.72;;;16.96;85.04
55759;BME280;41678;52.126;20.664;2023-05-20T08:36:54;101364.53;;;17.07;85.21
55759;BME280;41678;52.126;20.664;2023-05-20T08:42:14;101365.09;;;17.22;84.83
55759;BME280;41678;52.126;20.664;2023-05-20T08:47:37;101365.66;;;17.38;84.98
55759;BME280;41678;52.126;20.664;2023-05-20T08:52:58;101363.47;;;17.55;84.72
55759;BME280;41678;52.126;20.664;2023-05-20T08:58:18;101352.47;;;17.69;84.88
55759;BME280;41678;52.126;20.664;2023-05-20T09:03:37;101361.06;;;17.82;84.66
55759;BME280;41678;52.126;20.664;2023-05-20T09:08:59;101360.56;;;18.03;84.23
55759;BME280;41678;52.126;20.664;2023-05-20T09:14:18;101350.41;;;18.17;83.85
55759;BME280;41678;52.126;20.664;2023-05-20T09:19:39;101346.72;;;18.23;84.13
55759;BME280;41678;52.126;20.664;2023-05-20T09:24:59;101349.06;;;18.35;84.44
55759;BME280;41678;52.126;20.664;2023-05-20T09:30:20;101346.91;;;18.48;84.22
55759;BME280;41678;52.126;20.664;2023-05-20T09:35:40;101341.34;;;18.58;84.00
55759;BME280;41678;52.126;20.664;2023-05-20T09:41:07;101334.59;;;18.76;83.96
55759;BME280;41678;52.126;20.664;2023-05-20T09:46:27;101324.31;;;18.93;83.26
55759;BME280;41678;52.126;20.664;2023-05-20T09:51:47;101314.97;;;19.08;83.44
55759;BME280;41678;52.126;20.664;2023-05-20T09:57:08;101315.03;;;19.35;82.79
55759;BME280;41678;52.126;20.664;2023-05-20T10:02:28;101310.34;;;19.44;82.57
55759;BME280;41678;52.126;20.664;2023-05-20T10:24:43;101304.41;;;19.88;81.51
55759;BME280;41678;52.126;20.664;2023-05-20T10:30:14;101294.97;;;20.04;81.81
55759;BME280;41678;52.126;20.664;2023-05-20T10:35:34;101289.97;;;20.20;81.15
55759;BME280;41678;52.126;20.664;2023-05-20T10:41:08;101281.50;;;20.33;80.32
55759;BME280;41678;52.126;20.664;2023-05-20T10:46:33;101281.94;;;20.44;80.39
55759;BME280;41678;52.126;20.664;2023-05-20T10:51:53;101275.34;;;20.55;79.38
55759;BME280;41678;52.126;20.664;2023-05-20T10:57:13;101273.47;;;20.57;79.29
55759;BME280;41678;52.126;20.664;2023-05-20T11:02:33;101268.75;;;20.63;78.83
55759;BME280;41678;52.126;20.664;2023-05-20T11:08:05;101260.75;;;20.63;79.63
55759;BME280;41678;52.126;20.664;2023-05-20T11:13:25;101248.81;;;20.72;78.85
55759;BME280;41678;52.126;20.664;2023-05-20T11:18:47;101243.31;;;20.75;78.71
55759;BME280;41678;52.126;20.664;2023-05-20T11:24:07;101236.22;;;20.74;78.25
55759;BME280;41678;52.126;20.664;2023-05-20T11:29:27;101251.97;;;20.84;78.30
55759;BME280;41678;52.126;20.664;2023-05-20T11:34:50;101233.91;;;20.89;77.98
55759;BME280;41678;52.126;20.664;2023-05-20T11:40:12;101240.03;;;20.92;76.80
55759;BME280;41678;52.126;20.664;2023-05-20T11:51:00;101231.56;;;21.03;77.65
55759;BME280;41678;52.126;20.664;2023-05-20T11:56:19;101228.84;;;21.05;77.87
55759;BME280;41678;52.126;20.664;2023-05-20T12:01:40;101231.06;;;21.16;77.65
55759;BME280;41678;52.126;20.664;2023-05-20T12:06:59;101224.78;;;21.17;77.09
55759;BME280;41678;52.126;20.664;2023-05-20T12:12:19;101220.09;;;21.22;76.02
55759;BME280;41678;52.126;20.664;2023-05-20T12:17:45;101224.63;;;21.20;76.71
55759;BME280;41678;52.126;20.664;2023-05-20T12:23:05;101218.91;;;21.29;75.97
55759;BME280;41678;52.126;20.664;2023-05-20T12:28:24;101214.09;;;21.37;75.55
55759;BME280;41678;52.126;20.664;2023-05-20T12:33:44;101218.41;;;21.42;75.37
55759;BME280;41678;52.126;20.664;2023-05-20T12:39:04;101226.03;;;21.51;73.65
55759;BME280;41678;52.126;20.664;2023-05-20T12:44:25;101216.38;;;21.47;73.87
55759;BME280;41678;52.126;20.664;2023-05-20T12:49:45;101207.22;;;21.52;74.92
55759;BME280;41678;52.126;20.664;2023-05-20T12:55:04;101206.00;;;21.60;73.92
55759;BME280;41678;52.126;20.664;2023-05-20T13:00:32;101183.63;;;21.61;75.11
55759;BME280;41678;52.126;20.664;2023-05-20T13:05:51;101180.53;;;21.72;74.81
55759;BME280;41678;52.126;20.664;2023-05-20T13:11:11;101179.16;;;21.82;72.91
55759;BME280;41678;52.126;20.664;2023-05-20T13:16:31;101176.47;;;21.82;71.90
55759;BME280;41678;52.126;20.664;2023-05-20T13:21:50;101174.63;;;21.84;73.11
55759;BME280;41678;52.126;20.664;2023-05-20T13:27:12;101174.28;;;21.92;71.14
55759;BME280;41678;52.126;20.664;2023-05-20T13:32:32;101161.78;;;21.91;71.22
55759;BME280;41678;52.126;20.664;2023-05-20T13:37:52;101163.75;;;21.87;71.45
55759;BME280;41678;52.126;20.664;2023-05-20T13:43:12;101155.44;;;21.93;72.04
55759;BME280;41678;52.126;20.664;2023-05-20T13:48:32;101148.97;;;21.98;72.63
55759;BME280;41678;52.126;20.664;2023-05-20T13:53:51;101149.56;;;22.04;71.22
55759;BME280;41678;52.126;20.664;2023-05-20T13:59:11;101153.28;;;22.02;72.14
55759;BME280;41678;52.126;20.664;2023-05-20T14:04:31;101142.66;;;21.99;72.26
55759;BME280;41678;52.126;20.664;2023-05-20T14:09:56;101137.09;;;22.03;71.03
55759;BME280;41678;52.126;20.664;2023-05-20T14:15:15;101136.66;;;21.93;71.56
55759;BME280;41678;52.126;20.664;2023-05-20T14:20:34;101136.75;;;21.92;72.39
55759;BME280;41678;52.126;20.664;2023-05-20T14:25:54;101142.31;;;21.87;72.26
55759;BME280;41678;52.126;20.664;2023-05-20T14:31:13;101131.75;;;21.84;72.16
55759;BME280;41678;52.126;20.664;2023-05-20T14:36:32;101129.97;;;21.83;72.90
55759;BME280;41678;52.126;20.664;2023-05-20T14:41:52;101134.34;;;21.86;72.60
55759;BME280;41678;52.126;20.664;2023-05-20T14:47:12;101127.44;;;21.80;72.74
55759;BME280;41678;52.126;20.664;2023-05-20T14:52:37;101119.69;;;21.74;72.73
55759;BME280;41678;52.126;20.664;2023-05-20T14:57:56;101125.03;;;21.74;73.15
55759;BME280;41678;52.126;20.664;2023-05-20T15:03:16;101126.72;;;21.76;72.60
55759;BME280;41678;52.126;20.664;2023-05-20T15:08:35;101122.72;;;21.66;72.94
55759;BME280;41678;52.126;20.664;2023-05-20T15:13:55;101120.19;;;21.61;73.02
55759;BME280;41678;52.126;20.664;2023-05-20T15:19:14;101108.53;;;21.62;73.11
55759;BME280;41678;52.126;20.664;2023-05-20T15:24:34;101112.38;;;21.57;73.10
55759;BME280;41678;52.126;20.664;2023-05-20T15:29:54;101106.22;;;21.55;73.13
55759;BME280;41678;52.126;20.664;2023-05-20T15:35:14;101095.19;;;21.61;72.68
55759;BME280;41678;52.126;20.664;2023-05-20T15:40:34;101093.56;;;21.58;72.35
55759;BME280;41678;52.126;20.664;2023-05-20T15:45:53;101096.22;;;21.58;71.96
55759;BME280;41678;52.126;20.664;2023-05-20T15:51:13;101097.72;;;21.45;72.47
55759;BME280;41678;52.126;20.664;2023-05-20T15:56:33;101096.84;;;21.44;72.18
55759;BME280;41678;52.126;20.664;2023-05-20T16:01:52;101100.44;;;21.43;72.09
55759;BME280;41678;52.126;20.664;2023-05-20T16:07:12;101102.41;;;21.40;71.87
55759;BME280;41678;52.126;20.664;2023-05-20T16:12:32;101087.41;;;21.35;72.05
55759;BME280;41678;52.126;20.664;2023-05-20T16:17:51;101094.91;;;21.27;72.25
55759;BME280;41678;52.126;20.664;2023-05-20T16:28:31;101093.31;;;21.23;72.51
55759;BME280;41678;52.126;20.664;2023-05-20T16:33:51;101110.44;;;21.19;72.91
55759;BME280;41678;52.126;20.664;2023-05-20T16:39:11;101110.63;;;21.14;72.68
55759;BME280;41678;52.126;20.664;2023-05-20T16:44:31;101111.78;;;21.08;73.07
55759;BME280;41678;52.126;20.664;2023-05-20T16:49:56;101111.88;;;21.05;73.40
55759;BME280;41678;52.126;20.664;2023-05-20T16:55:16;101111.19;;;21.02;73.57
55759;BME280;41678;52.126;20.664;2023-05-20T17:00:35;101110.44;;;20.98;73.72
55759;BME280;41678;52.126;20.664;2023-05-20T17:05:55;101108.69;;;20.97;73.96
55759;BME280;41678;52.126;20.664;2023-05-20T17:11:14;101109.84;;;20.90;73.90
55759;BME280;41678;52.126;20.664;2023-05-20T17:16:35;101110.94;;;20.86;74.22
55759;BME280;41678;52.126;20.664;2023-05-20T17:21:54;101103.09;;;20.81;74.15
55759;BME280;41678;52.126;20.664;2023-05-20T17:27:14;101110.28;;;20.79;73.88
55759;BME280;41678;52.126;20.664;2023-05-20T17:32:33;101113.78;;;20.81;73.87
55759;BME280;41678;52.126;20.664;2023-05-20T17:37:53;101122.09;;;20.73;73.95
55759;BME280;41678;52.126;20.664;2023-05-20T17:43:13;101126.91;;;20.65;73.65
55759;BME280;41678;52.126;20.664;2023-05-20T17:48:33;101134.44;;;20.55;74.05
55759;BME280;41678;52.126;20.664;2023-05-20T17:53:52;101123.13;;;20.48;73.95
55759;BME280;41678;52.126;20.664;2023-05-20T17:59:12;101127.75;;;20.43;73.97
55759;BME280;41678;52.126;20.664;2023-05-20T18:04:32;101127.06;;;20.38;74.24
55759;BME280;41678;52.126;20.664;2023-05-20T18:09:51;101133.41;;;20.35;74.25
55759;BME280;41678;52.126;20.664;2023-05-20T18:15:11;101147.16;;;20.26;74.13
55759;BME280;41678;52.126;20.664;2023-05-20T18:20:36;101147.19;;;20.24;74.51
55759;BME280;41678;52.126;20.664;2023-05-20T18:25:56;101144.19;;;20.10;74.48
55759;BME280;41678;52.126;20.664;2023-05-20T18:31:16;101136.47;;;20.02;74.33
55759;BME280;41678;52.126;20.664;2023-05-20T18:36:35;101140.38;;;19.92;73.95
55759;BME280;41678;52.126;20.664;2023-05-20T18:41:55;101146.75;;;19.88;73.73
55759;BME280;41678;52.126;20.664;2023-05-20T18:47:15;101155.97;;;19.79;74.41
55759;BME280;41678;52.126;20.664;2023-05-20T18:52:37;101155.50;;;19.67;74.24
55759;BME280;41678;52.126;20.664;2023-05-20T18:57:57;101154.13;;;19.56;73.97
55759;BME280;41678;52.126;20.664;2023-05-20T19:03:16;101149.78;;;19.53;74.23
55759;BME280;41678;52.126;20.664;2023-05-20T19:08:36;101154.69;;;19.40;74.11
55759;BME280;41678;52.126;20.664;2023-05-20T19:13:55;101145.19;;;19.31;74.20
55759;BME280;41678;52.126;20.664;2023-05-20T19:19:18;101154.50;;;19.19;74.13
55759;BME280;41678;52.126;20.664;2023-05-20T19:24:37;101145.06;;;19.09;74.38
55759;BME280;41678;52.126;20.664;2023-05-20T19:29:57;101153.34;;;19.00;74.53
55759;BME280;41678;52.126;20.664;2023-05-20T19:35:17;101139.47;;;18.88;74.51
55759;BME280;41678;52.126;20.664;2023-05-20T19:40:36;101146.03;;;18.78;74.64
55759;BME280;41678;52.126;20.664;2023-05-20T19:45:56;101135.53;;;18.72;74.87
55759;BME280;41678;52.126;20.664;2023-05-20T19:51:16;101144.81;;;18.60;74.54
55759;BME280;41678;52.126;20.664;2023-05-20T19:56:35;101139.78;;;18.50;74.73
55759;BME280;41678;52.126;20.664;2023-05-20T20:01:55;101140.09;;;18.39;74.60
55759;BME280;41678;52.126;20.664;2023-05-20T20:07:21;101142.16;;;18.30;74.63
55759;BME280;41678;52.126;20.664;2023-05-20T20:12:42;101143.34;;;18.19;74.84
55759;BME280;41678;52.126;20.664;2023-05-20T20:18:02;101141.09;;;18.07;74.83
55759;BME280;41678;52.126;20.664;2023-05-20T20:23:22;101148.44;;;17.97;74.72
55759;BME280;41678;52.126;20.664;2023-05-20T20:28:41;101153.13;;;17.87;74.78
55759;BME280;41678;52.126;20.664;2023-05-20T20:34:01;101156.09;;;17.76;74.89
55759;BME280;41678;52.126;20.664;2023-05-20T20:39:20;101157.22;;;17.67;75.00
55759;BME280;41678;52.126;20.664;2023-05-20T20:44:43;101152.22;;;17.55;74.96
55759;BME280;41678;52.126;20.664;2023-05-20T20:50:07;101142.69;;;17.48;75.08
55759;BME280;41678;52.126;20.664;2023-05-20T20:55:27;101139.41;;;17.36;74.45
55759;BME280;41678;52.126;20.664;2023-05-20T21:00:50;101128.25;;;17.22;75.01
55759;BME280;41678;52.126;20.664;2023-05-20T21:06:11;101135.56;;;17.13;75.05
55759;BME280;41678;52.126;20.664;2023-05-20T21:11:31;101142.97;;;17.02;74.97
55759;BME280;41678;52.126;20.664;2023-05-20T21:16:51;101135.22;;;16.91;75.12
55759;BME280;41678;52.126;20.664;2023-05-20T21:22:11;101134.53;;;16.81;75.04
55759;BME280;41678;52.126;20.664;2023-05-20T21:27:30;101133.94;;;16.70;75.22
55759;BME280;41678;52.126;20.664;2023-05-20T21:32:50;101129.75;;;16.60;75.20
55759;BME280;41678;52.126;20.664;2023-05-20T21:38:09;101135.22;;;16.52;75.28
55759;BME280;41678;52.126;20.664;2023-05-20T21:43:31;101142.53;;;16.42;75.16
55759;BME280;41678;52.126;20.664;2023-05-20T21:48:51;101146.31;;;16.32;75.32
55759;BME280;41678;52.126;20.664;2023-05-20T21:54:10;101141.13;;;16.25;75.13
55759;BME280;41678;52.126;20.664;2023-05-20T21:59:30;101148.44;;;16.16;75.15
55759;BME280;41678;52.126;20.664;2023-05-20T22:04:49;101143.38;;;16.03;75.02
55759;BME280;41678;52.126;20.664;2023-05-20T22:10:10;101145.22;;;15.98;75.07
55759;BME280;41678;52.126;20.664;2023-05-20T22:15:32;101145.41;;;15.87;75.32
55759;BME280;41678;52.126;20.664;2023-05-20T22:20:51;101146.50;;;15.77;75.29
55759;BME280;41678;52.126;20.664;2023-05-20T22:26:10;101140.47;;;15.68;75.06
55759;BME280;41678;52.126;20.664;2023-05-20T22:31:30;101154.72;;;15.64;75.30
55759;BME280;41678;52.126;20.664;2023-05-20T22:36:50;101156.66;;;15.54;75.44
55759;BME280;41678;52.126;20.664;2023-05-20T22:42:11;101140.91;;;15.45;75.06
55759;BME280;41678;52.126;20.664;2023-05-20T22:47:30;101145.44;;;15.40;75.16
55759;BME280;41678;52.126;20.664;2023-05-20T22:52:50;101141.97;;;15.35;75.32
55759;BME280;41678;52.126;20.664;2023-05-20T22:58:10;101139.44;;;15.27;75.40
55759;BME280;41678;52.126;20.664;2023-05-20T23:03:30;101139.56;;;15.21;75.23
55759;BME280;41678;52.126;20.664;2023-05-20T23:08:50;101141.41;;;15.15;75.05
55759;BME280;41678;52.126;20.664;2023-05-20T23:14:10;101132.72;;;15.07;75.34
55759;BME280;41678;52.126;20.664;2023-05-20T23:19:30;101137.25;;;14.99;75.30
55759;BME280;41678;52.126;20.664;2023-05-20T23:24:50;101146.16;;;14.95;75.36
55759;BME280;41678;52.126;20.664;2023-05-20T23:30:10;101140.13;;;14.86;75.22
55759;BME280;41678;52.126;20.664;2023-05-20T23:35:30;101140.25;;;14.79;75.39
55759;BME280;41678;52.126;20.664;2023-05-20T23:40:50;101135.03;;;14.71;75.25
55759;BME280;41678;52.126;20.664;2023-05-20T23:46:10;101135.09;;;14.65;75.33
55759;BME280;41678;52.126;20.664;2023-05-20T23:51:29;101136.06;;;14.59;75.45
55759;BME280;41678;52.126;20.664;2023-05-20T23:56:50;101122.94;;;14.51;75.43
